createdAt,value
2023-01-10T00:00:32.248Z,9.135
2023-01-10T00:01:37.092Z,9.125
2023-01-10T00:02:29.817Z,9.135
2023-01-10T00:03:29.685Z,9.135
2023-01-10T00:04:27.071Z,9.125
2023-01-10T00:05:26.637Z,9.125
2023-01-10T00:07:26.397Z,9.125
2023-01-10T00:09:26.607Z,9.125
2023-01-10T00:10:26.728Z,9.125
2023-01-10T00:11:25.863Z,9.125
2023-01-10T00:13:25.963Z,9.062
2023-01-10T00:14:26.695Z,9.093
2023-01-10T00:15:27.390Z,9.125
2023-01-10T00:16:26.399Z,9.125
2023-01-10T00:17:26.260Z,9.125
2023-01-10T00:19:26.715Z,9.125
2023-01-10T00:20:27.229Z,9.088
2023-01-10T00:21:25.581Z,9.062
2023-01-10T00:23:25.360Z,9.062
2023-01-10T00:25:25.950Z,9.062
2023-01-10T00:27:25.339Z,9.125
2023-01-10T00:29:25.279Z,9.125
2023-01-10T00:31:25.984Z,9.125
2023-01-10T00:32:26.075Z,9.083
2023-01-10T00:33:26.552Z,9.062
2023-01-10T00:34:26.888Z,9.062
2023-01-10T00:35:27.864Z,9.062
2023-01-10T00:36:26.479Z,9.062
2023-01-10T00:37:26.901Z,9.062
2023-01-10T00:38:26.845Z,9.062
2023-01-10T00:39:26.963Z,9.083
2023-01-10T00:40:26.988Z,9.104
2023-01-10T00:41:26.205Z,9.114
2023-01-10T00:43:26.989Z,9.104
2023-01-10T00:44:26.093Z,9.125
2023-01-10T00:45:26.532Z,9.114
2023-01-10T00:46:27.232Z,9.083
2023-01-10T00:47:27.395Z,9.093
2023-01-10T00:49:27.233Z,9.083
2023-01-10T00:50:27.145Z,9.083
2023-01-10T00:51:26.467Z,9.125
2023-01-10T00:53:27.360Z,9.093
2023-01-10T00:55:26.664Z,9.062
2023-01-10T00:57:27.050Z,9.114
2023-01-10T00:58:25.768Z,9.114
2023-01-10T00:59:26.790Z,9.093
2023-01-10T01:00:28.144Z,9.114
2023-01-10T01:01:29.372Z,9.083
2023-01-10T01:03:26.477Z,9.072
2023-01-10T01:05:26.904Z,9.125
2023-01-10T01:06:27.153Z,9.125
2023-01-10T01:07:27.078Z,9.125
2023-01-10T01:09:26.016Z,9.062
2023-01-10T01:11:25.723Z,9.062
2023-01-10T01:13:26.537Z,9.093
2023-01-10T01:14:26.629Z,9.093
2023-01-10T01:15:26.368Z,9.062
2023-01-10T01:17:25.686Z,9.062
2023-01-10T01:18:26.577Z,9.093
2023-01-10T01:19:26.489Z,9.125
2023-01-10T01:21:26.974Z,9.125
2023-01-10T01:23:26.276Z,9.125
2023-01-10T01:25:27.042Z,9.125
2023-01-10T01:27:26.178Z,9.125
2023-01-10T01:29:35.227Z,9.125
2023-01-10T01:30:27.241Z,9.145
2023-01-10T01:31:26.683Z,9.135
2023-01-10T01:33:27.204Z,9.125
2023-01-10T01:34:26.768Z,9.156
2023-01-10T01:35:26.450Z,9.125
2023-01-10T01:37:26.652Z,9.093
2023-01-10T01:39:26.264Z,9.114
2023-01-10T01:41:25.962Z,9.125
2023-01-10T01:42:26.579Z,9.125
2023-01-10T01:43:26.319Z,9.125
2023-01-10T01:45:26.379Z,9.125
2023-01-10T01:47:25.947Z,9.104
2023-01-10T01:49:26.682Z,9.062
2023-01-10T01:51:26.104Z,9.062
2023-01-10T01:53:26.176Z,9.062
2023-01-10T01:56:12.909Z,9.062
2023-01-10T01:56:26.195Z,9.062
2023-01-10T01:57:26.443Z,9.062
2023-01-10T01:59:25.769Z,9.062
2023-01-10T02:01:26.238Z,9.062
2023-01-10T02:03:25.614Z,9.062
2023-01-10T02:05:25.547Z,9.062
2023-01-10T02:07:25.563Z,9.062
2023-01-10T02:09:25.224Z,9
2023-01-10T02:11:25.587Z,9.051
2023-01-10T02:13:25.109Z,9
2023-01-10T02:15:26.169Z,9.062
2023-01-10T02:16:25.649Z,9.010
2023-01-10T02:17:25.531Z,9.010
2023-01-10T02:19:25.342Z,8.937
2023-01-10T02:21:25.577Z,8.968
2023-01-10T02:23:25.763Z,9
2023-01-10T02:25:25.554Z,9
2023-01-10T02:27:25.507Z,9
2023-01-10T02:28:39.351Z,9
2023-01-10T02:29:25.550Z,9
2023-01-10T02:31:26.473Z,9.020
2023-01-10T02:33:25.512Z,9
2023-01-10T02:34:26.474Z,9
2023-01-10T02:35:25.979Z,7.400
2023-01-10T02:37:25.384Z,9
2023-01-10T02:39:25.789Z,9
2023-01-10T02:41:26.344Z,9
2023-01-10T02:43:26.181Z,9
2023-01-10T02:44:27.877Z,8.979
2023-01-10T02:45:26.426Z,8.937
2023-01-10T02:47:25.877Z,8.968
2023-01-10T02:49:25.879Z,9
2023-01-10T02:51:25.662Z,9
2023-01-10T02:53:25.883Z,9
2023-01-10T02:54:25.760Z,9
2023-01-10T02:55:26.073Z,9
2023-01-10T02:57:25.657Z,9
2023-01-10T02:59:25.591Z,9
2023-01-10T03:00:26.838Z,9
2023-01-10T03:01:26.072Z,9
2023-01-10T03:03:25.906Z,9
2023-01-10T03:05:25.981Z,9
2023-01-10T03:07:25.587Z,8.979
2023-01-10T03:09:25.195Z,8.937
2023-01-10T03:11:25.912Z,8.979
2023-01-10T03:13:25.653Z,8.937
2023-01-10T03:15:26.133Z,8.937
2023-01-10T03:17:26.021Z,8.937
2023-01-10T03:19:26.179Z,8.937
2023-01-10T03:21:26.051Z,8.924
2023-01-10T03:23:26.376Z,8.875
2023-01-10T03:25:25.786Z,8.885
2023-01-10T03:27:25.747Z,8.924
2023-01-10T03:29:25.556Z,8.937
2023-01-10T03:31:25.881Z,8.912
2023-01-10T03:33:26.122Z,8.924
2023-01-10T03:35:25.777Z,8.887
2023-01-10T03:37:25.265Z,8.875
2023-01-10T03:39:25.628Z,8.875
2023-01-10T03:41:25.778Z,8.906
2023-01-10T03:43:25.605Z,8.887
2023-01-10T03:45:26.003Z,8.875
2023-01-10T03:47:25.326Z,8.937
2023-01-10T03:49:25.853Z,8.926
2023-01-10T03:50:26.440Z,8.875
2023-01-10T03:51:24.921Z,8.875
2023-01-10T03:52:25.729Z,8.885
2023-01-10T03:53:25.553Z,8.895
2023-01-10T03:55:25.801Z,8.895
2023-01-10T03:56:26.075Z,8.885
2023-01-10T03:57:25.082Z,8.895
2023-01-10T03:59:25.498Z,8.875
2023-01-10T04:01:25.704Z,8.854
2023-01-10T04:03:25.564Z,8.812
2023-01-10T04:04:26.385Z,8.812
2023-01-10T04:05:26.736Z,8.812
2023-01-10T04:07:26.211Z,8.812
2023-01-10T04:09:26.409Z,8.812
2023-01-10T04:10:26.657Z,8.812
2023-01-10T04:11:25.875Z,8.812
2023-01-10T04:12:27.180Z,8.812
2023-01-10T04:13:27.273Z,8.812
2023-01-10T04:15:26.056Z,8.864
2023-01-10T04:17:25.800Z,8.854
2023-01-10T04:19:25.790Z,8.812
2023-01-10T04:21:25.659Z,8.822
2023-01-10T04:23:25.752Z,8.812
2023-01-10T04:25:26.150Z,8.812
2023-01-10T04:27:25.510Z,8.833
2023-01-10T04:29:25.938Z,8.864
2023-01-10T04:30:26.191Z,8.875
2023-01-10T04:31:25.387Z,8.854
2023-01-10T04:33:25.562Z,8.854
2023-01-10T04:35:26.264Z,8.864
2023-01-10T04:37:25.734Z,8.864
2023-01-10T04:38:26.023Z,8.854
2023-01-10T04:39:25.709Z,8.822
2023-01-10T04:41:25.604Z,8.864
2023-01-10T04:43:25.584Z,8.833
2023-01-10T04:45:25.717Z,8.822
2023-01-10T04:47:25.509Z,8.812
2023-01-10T04:49:25.323Z,8.812
2023-01-10T04:51:25.824Z,8.812
2023-01-10T04:53:25.600Z,8.812
2023-01-10T04:55:26.327Z,8.812
2023-01-10T04:57:26.223Z,8.801
2023-01-10T04:59:25.921Z,8.812
2023-01-10T05:00:27.165Z,8.812
2023-01-10T05:01:26.332Z,8.812
2023-01-10T05:03:26.074Z,8.801
2023-01-10T05:05:26.185Z,8.812
2023-01-10T05:07:25.471Z,8.812
2023-01-10T05:08:25.718Z,8.812
2023-01-10T05:09:24.981Z,8.812
2023-01-10T05:11:26.039Z,8.812
2023-01-10T05:13:25.744Z,8.812
2023-01-10T05:15:44.880Z,8.812
2023-01-10T05:17:25.516Z,8.812
2023-01-10T05:18:25.655Z,8.812
2023-01-10T05:19:26.155Z,8.812
2023-01-10T05:21:25.777Z,8.812
2023-01-10T05:23:25.851Z,8.812
2023-01-10T05:25:26.237Z,8.812
2023-01-10T05:27:26.049Z,8.812
2023-01-10T05:29:25.511Z,8.812
2023-01-10T05:30:26.127Z,8.812
2023-01-10T05:31:44.835Z,8.812
2023-01-10T05:33:25.090Z,8.812
2023-01-10T05:35:26.579Z,8.812
2023-01-10T05:37:25.689Z,8.812
2023-01-10T05:39:25.234Z,8.812
2023-01-10T05:41:25.911Z,8.812
2023-01-10T05:42:25.752Z,8.781
2023-01-10T05:43:25.735Z,8.75
2023-01-10T05:45:26.206Z,8.75
2023-01-10T05:47:25.513Z,8.75
2023-01-10T05:48:25.984Z,8.75
2023-01-10T05:49:25.469Z,8.75
2023-01-10T05:50:28.795Z,8.75
2023-01-10T05:51:25.807Z,8.75
2023-01-10T05:53:26.398Z,8.75
2023-01-10T05:55:25.962Z,8.75
2023-01-10T05:57:25.903Z,8.75
2023-01-10T05:59:37.662Z,8.75
2023-01-10T06:00:26.952Z,8.75
2023-01-10T06:01:26.337Z,8.75
2023-01-10T06:03:25.820Z,8.75
2023-01-10T06:05:25.828Z,8.718
2023-01-10T06:07:25.581Z,8.697
2023-01-10T06:08:26.346Z,8.75
2023-01-10T06:09:25.879Z,8.75
2023-01-10T06:10:28.828Z,8.75
2023-01-10T06:11:26.116Z,8.697
2023-01-10T06:13:35.220Z,8.75
2023-01-10T06:14:25.635Z,8.75
2023-01-10T06:15:26.481Z,8.739
2023-01-10T06:17:25.556Z,8.739
2023-01-10T06:18:25.878Z,8.739
2023-01-10T06:19:26.370Z,8.729
2023-01-10T06:21:26.336Z,8.739
2023-01-10T06:23:25.363Z,8.697
2023-01-10T06:25:26.591Z,8.708
2023-01-10T06:27:25.992Z,8.729
2023-01-10T06:29:26.383Z,8.812
2023-01-10T06:30:26.961Z,8.760
2023-01-10T06:31:26.271Z,8.781
2023-01-10T06:33:25.920Z,8.787
2023-01-10T06:35:26.704Z,8.770
2023-01-10T06:37:23.903Z,8.791
2023-01-10T06:38:26.355Z,8.75
2023-01-10T06:39:26.670Z,8.854
2023-01-10T06:40:26.285Z,8.875
2023-01-10T06:41:25.753Z,8.812
2023-01-10T06:43:26.143Z,8.812
2023-01-10T06:45:26.338Z,8.812
2023-01-10T06:46:26.430Z,8.854
2023-01-10T06:47:25.854Z,8.824
2023-01-10T06:49:25.955Z,8.812
2023-01-10T06:51:29.740Z,8.812
2023-01-10T06:52:26.479Z,8.833
2023-01-10T06:53:26.322Z,8.822
2023-01-10T06:54:27.733Z,8.791
2023-01-10T06:55:27.255Z,8.822
2023-01-10T06:56:25.594Z,8.854
2023-01-10T06:57:25.879Z,8.875
2023-01-10T06:58:26.147Z,8.875
2023-01-10T06:59:25.593Z,8.875
2023-01-10T07:00:27.338Z,8.822
2023-01-10T07:01:26.646Z,8.833
2023-01-10T07:03:27.316Z,8.833
2023-01-10T07:04:26.705Z,8.812
2023-01-10T07:05:27.806Z,8.812
2023-01-10T07:06:31.609Z,8.812
2023-01-10T07:07:26.453Z,8.801
2023-01-10T07:08:26.413Z,8.760
2023-01-10T07:09:26.873Z,8.812
2023-01-10T07:10:27.323Z,8.812
2023-01-10T07:11:27.716Z,8.812
2023-01-10T07:12:28.133Z,8.812
2023-01-10T07:13:25.744Z,8.854
2023-01-10T07:15:26.500Z,8.875
2023-01-10T07:16:40.415Z,8.864
2023-01-10T07:17:25.973Z,8.812
2023-01-10T07:19:26.843Z,8.822
2023-01-10T07:20:26.630Z,8.833
2023-01-10T07:21:26.047Z,8.812
2023-01-10T07:23:25.922Z,8.843
2023-01-10T07:25:25.207Z,8.812
2023-01-10T07:27:25.130Z,8.812
2023-01-10T07:29:38.581Z,8.812
2023-01-10T07:31:25.866Z,8.812
2023-01-10T07:33:25.372Z,8.812
2023-01-10T07:35:25.731Z,8.801
2023-01-10T07:37:25.329Z,8.812
2023-01-10T07:39:26.172Z,8.75
2023-01-10T07:41:25.797Z,8.718
2023-01-10T07:43:25.305Z,8.75
2023-01-10T07:45:25.432Z,8.801
2023-01-10T07:47:25.666Z,8.75
2023-01-10T07:49:25.783Z,8.75
2023-01-10T07:50:27.755Z,8.75
2023-01-10T07:51:25.681Z,8.739
2023-01-10T07:53:25.341Z,8.75
2023-01-10T07:55:25.694Z,8.781
2023-01-10T07:57:26.314Z,8.75
2023-01-10T07:59:25.362Z,8.75
2023-01-10T08:00:28.563Z,8.75
2023-01-10T08:01:26.018Z,8.75
2023-01-10T08:03:25.861Z,8.75
2023-01-10T08:05:25.526Z,8.75
2023-01-10T08:06:26.135Z,8.75
2023-01-10T08:07:25.472Z,8.75
2023-01-10T08:09:25.534Z,8.75
2023-01-10T08:11:25.763Z,8.699
2023-01-10T08:13:28.620Z,8.687
2023-01-10T08:15:25.199Z,8.687
2023-01-10T08:17:26.024Z,8.687
2023-01-10T08:19:26.576Z,8.687
2023-01-10T08:20:25.618Z,8.687
2023-01-10T08:21:25.597Z,8.687
2023-01-10T08:23:25.542Z,8.687
2023-01-10T08:25:25.638Z,8.687
2023-01-10T08:27:25.357Z,8.687
2023-01-10T08:28:25.740Z,8.676
2023-01-10T08:29:25.746Z,8.625
2023-01-10T08:31:25.505Z,8.625
2023-01-10T08:33:25.675Z,8.625
2023-01-10T08:35:25.271Z,8.572
2023-01-10T08:37:25.808Z,8.666
2023-01-10T08:39:25.524Z,8.520
2023-01-10T08:41:25.171Z,8.593
2023-01-10T08:43:25.384Z,8.604
2023-01-10T08:45:25.475Z,8.687
2023-01-10T08:47:25.681Z,8.697
2023-01-10T08:49:25.205Z,8.708
2023-01-10T08:51:25.051Z,8.687
2023-01-10T08:53:25.176Z,8.739
2023-01-10T08:55:25.660Z,8.676
2023-01-10T08:57:25.278Z,8.676
2023-01-10T08:59:25.128Z,8.687
2023-01-10T09:01:25.589Z,8.75
2023-01-10T09:03:25.502Z,8.697
2023-01-10T09:05:36.772Z,8.687
2023-01-10T09:07:25.575Z,8.635
2023-01-10T09:09:26.184Z,8.739
2023-01-10T09:11:25.590Z,8.75
2023-01-10T09:13:25.530Z,8.760
2023-01-10T09:15:25.545Z,8.739
2023-01-10T09:17:25.826Z,8.708
2023-01-10T09:19:25.493Z,8.697
2023-01-10T09:21:25.151Z,8.718
2023-01-10T09:23:25.748Z,8.718
2023-01-10T09:25:25.555Z,8.687
2023-01-10T09:27:25.397Z,8.708
2023-01-10T09:29:30.418Z,8.75
2023-01-10T09:31:25.458Z,8.781
2023-01-10T09:33:45.608Z,8.812
2023-01-10T09:35:25.564Z,8.812
2023-01-10T09:37:25.845Z,8.739
2023-01-10T09:39:39.297Z,8.75
2023-01-10T09:41:25.415Z,8.760
2023-01-10T09:43:24.860Z,8.801
2023-01-10T09:45:30.747Z,8.774
2023-01-10T09:47:32.351Z,8.812
2023-01-10T09:49:25.158Z,8.849
2023-01-10T09:51:24.971Z,8.849
2023-01-10T09:53:25.239Z,8.824
2023-01-10T09:55:25.499Z,8.812
2023-01-10T09:57:25.026Z,8.843
2023-01-10T09:59:25.063Z,8.812
2023-01-10T10:01:25.885Z,8.812
2023-01-10T10:03:25.644Z,8.833
2023-01-10T10:05:25.630Z,8.812
2023-01-10T10:07:25.294Z,8.812
2023-01-10T10:09:25.503Z,8.812
2023-01-10T10:11:25.176Z,8.833
2023-01-10T10:13:35.943Z,8.875
2023-01-10T10:15:25.744Z,8.875
2023-01-10T10:17:25.521Z,8.875
2023-01-10T10:19:25.482Z,8.875
2023-01-10T10:21:25.572Z,8.875
2023-01-10T10:22:27.219Z,8.875
2023-01-10T10:23:25.682Z,8.875
2023-01-10T10:25:26.249Z,8.885
2023-01-10T10:27:25.604Z,8.916
2023-01-10T10:29:25.328Z,8.895
2023-01-10T10:31:25.712Z,8.937
2023-01-10T10:33:26.018Z,8.937
2023-01-10T10:35:25.660Z,8.937
2023-01-10T10:37:25.472Z,8.937
2023-01-10T10:39:25.366Z,8.937
2023-01-10T10:41:25.779Z,8.947
2023-01-10T10:45:25.835Z,8.947
2023-01-10T10:47:25.608Z,9
2023-01-10T10:49:28.265Z,9
2023-01-10T10:51:25.552Z,9
2023-01-10T10:53:26.000Z,9
2023-01-10T10:55:25.601Z,9
2023-01-10T10:57:25.641Z,9
2023-01-10T10:59:25.896Z,9
2023-01-10T11:00:27.162Z,9
2023-01-10T11:01:26.922Z,9
2023-01-10T11:03:25.233Z,9
2023-01-10T11:05:25.839Z,9.041
2023-01-10T11:07:25.955Z,9.031
2023-01-10T11:09:25.534Z,9.062
2023-01-10T11:11:25.786Z,9.062
2023-01-10T11:13:25.496Z,9.012
2023-01-10T11:15:25.562Z,9
2023-01-10T11:17:26.075Z,9
2023-01-10T11:19:26.439Z,9.037
2023-01-10T11:21:26.328Z,9.024
2023-01-10T11:23:26.756Z,9
2023-01-10T11:24:25.540Z,9.031
2023-01-10T11:25:25.986Z,9.062
2023-01-10T11:27:25.904Z,9.062
2023-01-10T11:29:25.733Z,9.037
2023-01-10T11:31:25.678Z,9.062
2023-01-10T11:33:25.656Z,9
2023-01-10T11:35:26.701Z,9.062
2023-01-10T11:37:25.306Z,9.062
2023-01-10T11:39:26.152Z,9.062
2023-01-10T11:40:28.824Z,9.062
2023-01-10T11:41:26.530Z,9.062
2023-01-10T11:43:25.844Z,9.062
2023-01-10T11:44:27.748Z,9.062
2023-01-10T11:45:26.146Z,9.062
2023-01-10T11:47:26.514Z,9.041
2023-01-10T11:49:03.633Z,9.051
2023-01-10T11:49:25.478Z,9.062
2023-01-10T11:51:25.760Z,9.062
2023-01-10T11:53:25.986Z,9.062
2023-01-10T11:55:25.798Z,9.062
2023-01-10T11:57:26.148Z,9.062
2023-01-10T11:59:25.430Z,9.062
2023-01-10T12:00:33.779Z,9
2023-01-10T12:01:25.479Z,9.031
2023-01-10T12:02:33.651Z,9.062
2023-01-10T12:03:25.890Z,9.062
2023-01-10T12:04:33.660Z,9.062
2023-01-10T12:05:26.463Z,9.062
2023-01-10T12:06:40.085Z,9.062
2023-01-10T12:07:25.401Z,9.062
2023-01-10T12:08:39.501Z,9.062
2023-01-10T12:09:25.810Z,9.062
2023-01-10T12:11:25.315Z,9.062
2023-01-10T12:12:39.465Z,9.062
2023-01-10T12:13:25.354Z,9.062
2023-01-10T12:15:26.329Z,9.062
2023-01-10T12:17:25.925Z,9.062
2023-01-10T12:19:26.191Z,9.062
2023-01-10T12:21:25.923Z,9.062
2023-01-10T12:23:25.947Z,9.062
2023-01-10T12:25:26.078Z,9.062
2023-01-10T12:27:25.374Z,9.072
2023-01-10T12:29:25.782Z,9.062
2023-01-10T12:31:25.425Z,9.125
2023-01-10T12:33:25.816Z,9.072
2023-01-10T12:35:25.436Z,9.125
2023-01-10T12:37:25.284Z,9.062
2023-01-10T12:39:25.432Z,9.062
2023-01-10T12:41:25.669Z,9.125
2023-01-10T12:43:25.405Z,9.125
2023-01-10T12:45:25.543Z,9.125
2023-01-10T12:47:06.704Z,9.125
2023-01-10T12:47:25.884Z,9.125
2023-01-10T12:49:25.231Z,9.125
2023-01-10T12:51:25.182Z,9.099
2023-01-10T12:53:25.118Z,9.125
2023-01-10T12:55:26.084Z,9.125
2023-01-10T12:57:25.493Z,9.125
2023-01-10T12:59:37.440Z,9.125
2023-01-10T13:00:27.119Z,9.125
2023-01-10T13:01:26.610Z,9.125
2023-01-10T13:03:24.964Z,9.125
2023-01-10T13:04:25.961Z,9.125
2023-01-10T13:05:25.745Z,9.125
2023-01-10T13:07:25.028Z,9.125
2023-01-10T13:09:25.868Z,9.062
2023-01-10T13:11:25.334Z,9.125
2023-01-10T13:13:25.441Z,9.125
2023-01-10T13:15:26.205Z,9.125
2023-01-10T13:17:25.567Z,9.125
2023-01-10T13:19:25.601Z,9.125
2023-01-10T13:21:25.813Z,9.125
2023-01-10T13:23:25.844Z,9.125
2023-01-10T13:25:26.085Z,9.104
2023-01-10T13:27:25.087Z,9.072
2023-01-10T13:29:25.840Z,9.125
2023-01-10T13:31:25.101Z,9.125
2023-01-10T13:33:25.507Z,9.125
2023-01-10T13:35:26.361Z,9.125
2023-01-10T13:37:25.724Z,9.125
2023-01-10T13:39:25.795Z,9.125
2023-01-10T13:41:25.240Z,9.125
2023-01-10T13:43:25.856Z,9.125
2023-01-10T13:45:26.438Z,9.125
2023-01-10T13:47:25.312Z,9.125
2023-01-10T13:49:25.854Z,9.125
2023-01-10T13:51:25.597Z,9.125
2023-01-10T13:53:25.534Z,9.125
2023-01-10T13:55:25.969Z,9.125
2023-01-10T13:57:28.609Z,9.125
2023-01-10T13:59:26.146Z,9.125
2023-01-10T14:01:26.122Z,9.125
2023-01-10T14:03:26.476Z,9.125
2023-01-10T14:05:25.725Z,9.125
2023-01-10T14:07:25.983Z,9.125
2023-01-10T14:09:25.699Z,9.125
2023-01-10T14:11:25.606Z,9.125
2023-01-10T14:13:30.685Z,9.125
2023-01-10T14:15:31.598Z,9.114
2023-01-10T14:17:31.071Z,9.125
2023-01-10T14:19:26.235Z,9.099
2023-01-10T14:21:26.054Z,9.125
2023-01-10T14:23:26.016Z,9.125
2023-01-10T14:25:25.994Z,9.087
2023-01-10T14:27:33.859Z,9.099
2023-01-10T14:28:25.739Z,9.125
2023-01-10T14:29:34.196Z,9.125
2023-01-10T14:31:40.163Z,9.062
2023-01-10T14:33:40.299Z,9.074
2023-01-10T14:35:39.889Z,9.087
2023-01-10T14:37:26.047Z,9.072
2023-01-10T14:39:31.078Z,9.062
2023-01-10T14:41:26.010Z,9.072
2023-01-10T14:43:25.422Z,9.072
2023-01-10T14:45:31.170Z,9.062
2023-01-10T14:47:33.237Z,9.062
2023-01-10T14:49:25.331Z,9.062
2023-01-10T14:51:25.588Z,9.051
2023-01-10T14:53:26.098Z,9.062
2023-01-10T14:55:25.749Z,9.062
2023-01-10T14:57:25.772Z,9.062
2023-01-10T14:58:25.635Z,9.062
2023-01-10T14:59:25.652Z,9.062
2023-01-10T15:00:27.849Z,9.031
2023-01-10T15:01:26.402Z,9.051
2023-01-10T15:03:25.571Z,9.062
2023-01-10T15:05:25.633Z,9.062
2023-01-10T15:07:25.913Z,9.062
2023-01-10T15:08:26.286Z,9.062
2023-01-10T15:09:53.735Z,9.062
2023-01-10T15:11:25.785Z,9.041
2023-01-10T15:13:26.002Z,9.062
2023-01-10T15:15:27.008Z,9.062
2023-01-10T15:16:25.799Z,9.062
2023-01-10T15:17:29.650Z,9.062
2023-01-10T15:18:25.910Z,9.062
2023-01-10T15:19:26.061Z,9.062
2023-01-10T15:21:30.006Z,9.062
2023-01-10T15:23:25.660Z,9.062
2023-01-10T15:25:25.530Z,9.062
2023-01-10T15:27:25.820Z,9.062
2023-01-10T15:29:25.766Z,9.062
2023-01-10T15:31:25.763Z,9.062
2023-01-10T15:33:25.672Z,9.062
2023-01-10T15:35:36.745Z,9.062
2023-01-10T15:37:25.456Z,9.062
2023-01-10T15:39:26.109Z,9.051
2023-01-10T15:40:25.785Z,9.062
2023-01-10T15:41:25.566Z,9.020
2023-01-10T15:43:26.081Z,9.020
2023-01-10T15:45:26.134Z,9.051
2023-01-10T15:47:26.289Z,9.031
2023-01-10T15:49:25.978Z,9.062
2023-01-10T15:51:25.832Z,9.041
2023-01-10T15:53:25.500Z,9.051
2023-01-10T15:55:26.752Z,9.012
2023-01-10T15:56:26.062Z,9
2023-01-10T15:57:26.194Z,9
2023-01-10T15:58:25.846Z,9
2023-01-10T15:59:25.945Z,9
2023-01-10T16:01:28.684Z,9
2023-01-10T16:03:25.921Z,9
2023-01-10T16:05:25.283Z,8.987
2023-01-10T16:07:27.704Z,9
2023-01-10T16:08:26.101Z,9
2023-01-10T16:09:25.418Z,8.947
2023-01-10T16:11:25.620Z,7.400
2023-01-10T16:13:27.243Z,9
2023-01-10T16:15:25.769Z,9
2023-01-10T16:16:25.863Z,9
2023-01-10T16:17:25.899Z,8.968
2023-01-10T16:19:26.372Z,8.937
2023-01-10T16:21:25.770Z,8.947
2023-01-10T16:22:25.654Z,8.979
2023-01-10T16:23:25.732Z,9
2023-01-10T16:25:25.916Z,9
2023-01-10T16:27:26.004Z,8.947
2023-01-10T16:29:25.638Z,8.937
2023-01-10T16:31:26.005Z,8.937
2023-01-10T16:32:25.557Z,8.947
2023-01-10T16:33:25.627Z,8.979
2023-01-10T16:34:25.553Z,8.937
2023-01-10T16:35:28.254Z,8.989
2023-01-10T16:36:25.831Z,8.968
2023-01-10T16:37:27.076Z,8.937
2023-01-10T16:38:26.234Z,8.937
2023-01-10T16:39:25.961Z,8.958
2023-01-10T16:40:31.562Z,8.947
2023-01-10T16:41:26.568Z,8.947
2023-01-10T16:43:25.847Z,8.937
2023-01-10T16:44:25.772Z,8.937
2023-01-10T16:45:25.908Z,8.937
2023-01-10T16:46:31.198Z,8.937
2023-01-10T16:47:25.655Z,8.937
2023-01-10T16:49:25.644Z,8.937
2023-01-10T16:50:26.797Z,8.937
2023-01-10T16:51:26.315Z,8.937
2023-01-10T16:53:26.887Z,8.937
2023-01-10T16:54:26.707Z,8.937
2023-01-10T16:55:26.722Z,8.937
2023-01-10T16:56:34.527Z,8.937
2023-01-10T16:57:26.133Z,8.937
2023-01-10T16:59:25.820Z,8.937
2023-01-10T17:00:27.142Z,8.937
2023-01-10T17:01:26.198Z,8.937
2023-01-10T17:03:25.034Z,8.937
2023-01-10T17:05:27.242Z,8.937
2023-01-10T17:07:25.930Z,8.937
2023-01-10T17:09:26.188Z,8.937
2023-01-10T17:11:26.815Z,8.937
2023-01-10T17:12:26.780Z,8.937
2023-01-10T17:13:27.109Z,8.937
2023-01-10T17:14:26.389Z,8.937
2023-01-10T17:15:26.602Z,8.937
2023-01-10T17:16:29.220Z,8.937
2023-01-10T17:17:27.941Z,8.937
2023-01-10T17:19:25.982Z,8.937
2023-01-10T17:21:26.154Z,8.937
2023-01-10T17:22:44.814Z,8.958
2023-01-10T17:23:26.353Z,8.937
2023-01-10T17:24:26.852Z,8.937
2023-01-10T17:25:27.029Z,8.937
2023-01-10T17:27:27.013Z,8.937
2023-01-10T17:29:26.349Z,8.937
2023-01-10T17:30:48.660Z,8.937
2023-01-10T17:31:26.718Z,8.937
2023-01-10T17:33:26.043Z,8.937
2023-01-10T17:35:26.219Z,8.937
2023-01-10T17:36:29.435Z,8.937
2023-01-10T17:37:26.273Z,8.937
2023-01-10T17:39:26.084Z,8.937
2023-01-10T17:41:26.075Z,8.937
2023-01-10T17:42:27.679Z,8.937
2023-01-10T17:43:25.709Z,8.937
2023-01-10T17:44:53.368Z,8.937
2023-01-10T17:45:25.811Z,8.937
2023-01-10T17:47:25.742Z,8.937
2023-01-10T17:49:25.936Z,8.937
2023-01-10T17:50:25.745Z,8.895
2023-01-10T17:51:25.794Z,8.937
2023-01-10T17:52:25.757Z,8.937
2023-01-10T17:53:25.637Z,8.937
2023-01-10T17:55:25.765Z,8.937
2023-01-10T17:56:25.787Z,8.937
2023-01-10T17:57:26.070Z,8.937
2023-01-10T17:59:25.542Z,8.937
2023-01-10T18:00:26.598Z,8.937
2023-01-10T18:01:26.394Z,8.937
2023-01-10T18:03:25.997Z,8.937
2023-01-10T18:05:25.861Z,8.937
2023-01-10T18:06:33.889Z,8.937
2023-01-10T18:07:26.031Z,8.937
2023-01-10T18:09:26.063Z,8.937
2023-01-10T18:10:26.512Z,8.937
2023-01-10T18:11:26.255Z,8.937
2023-01-10T18:13:26.600Z,8.937
2023-01-10T18:14:25.881Z,8.937
2023-01-10T18:15:27.034Z,8.937
2023-01-10T18:16:27.387Z,8.937
2023-01-10T18:17:26.004Z,8.937
2023-01-10T18:19:25.974Z,8.937
2023-01-10T18:21:26.190Z,8.937
2023-01-10T18:23:25.644Z,8.937
2023-01-10T18:25:25.858Z,8.926
2023-01-10T18:27:25.920Z,8.937
2023-01-10T18:29:26.337Z,8.937
2023-01-10T18:31:26.086Z,8.937
2023-01-10T18:33:26.547Z,8.937
2023-01-10T18:35:25.841Z,8.937
2023-01-10T18:36:26.080Z,8.937
2023-01-10T18:37:25.615Z,8.937
2023-01-10T18:39:26.197Z,8.937
2023-01-10T18:40:26.404Z,8.937
2023-01-10T18:41:26.222Z,8.937
2023-01-10T18:43:26.155Z,8.937
2023-01-10T18:45:26.141Z,8.937
2023-01-10T18:47:26.192Z,8.937
2023-01-10T18:49:25.690Z,8.958
2023-01-10T18:50:26.389Z,8.937
2023-01-10T18:51:26.043Z,8.937
2023-01-10T18:53:25.208Z,8.937
2023-01-10T18:55:26.242Z,8.937
2023-01-10T18:57:25.666Z,8.937
2023-01-10T18:59:25.807Z,8.937
2023-01-10T19:00:27.479Z,8.937
2023-01-10T19:01:30.513Z,8.937
2023-01-10T19:03:31.307Z,8.937
2023-01-10T19:05:26.095Z,8.937
2023-01-10T19:06:25.739Z,8.937
2023-01-10T19:07:25.908Z,8.937
2023-01-10T19:09:25.884Z,8.949
2023-01-10T19:10:26.248Z,8.982
2023-01-10T19:11:26.530Z,9
2023-01-10T19:13:25.813Z,9
2023-01-10T19:14:25.684Z,9
2023-01-10T19:15:33.649Z,9
2023-01-10T19:17:25.016Z,8.937
2023-01-10T19:19:25.375Z,8.937
2023-01-10T19:21:39.455Z,8.987
2023-01-10T19:22:25.871Z,9
2023-01-10T19:23:39.809Z,8.968
2023-01-10T19:24:25.547Z,8.958
2023-01-10T19:25:30.668Z,8.968
2023-01-10T19:27:39.641Z,9
2023-01-10T19:28:26.430Z,8.989
2023-01-10T19:29:25.658Z,9
2023-01-10T19:31:31.069Z,8.989
2023-01-10T19:33:25.949Z,8.937
2023-01-10T19:34:25.948Z,9
2023-01-10T19:35:26.305Z,9
2023-01-10T19:37:34.197Z,9
2023-01-10T19:39:25.888Z,8.958
2023-01-10T19:40:26.740Z,8.947
2023-01-10T19:41:25.745Z,8.937
2023-01-10T19:42:26.234Z,8.937
2023-01-10T19:43:25.280Z,8.958
2023-01-10T19:45:25.252Z,8.937
2023-01-10T19:47:26.031Z,8.947
2023-01-10T19:49:25.797Z,8.989
2023-01-10T19:50:26.423Z,9
2023-01-10T19:51:25.724Z,9
2023-01-10T19:53:25.704Z,9
2023-01-10T19:55:26.196Z,9
2023-01-10T19:56:28.071Z,9
2023-01-10T19:57:25.983Z,9
2023-01-10T19:59:25.820Z,9
2023-01-10T20:00:27.078Z,9
2023-01-10T20:01:25.648Z,9
2023-01-10T20:03:26.110Z,9
2023-01-10T20:05:25.718Z,9
2023-01-10T20:06:25.891Z,9
2023-01-10T20:07:28.439Z,9
2023-01-10T20:09:25.551Z,9
2023-01-10T20:11:25.209Z,9
2023-01-10T20:13:25.907Z,9
2023-01-10T20:15:26.306Z,9
2023-01-10T20:16:25.474Z,9
2023-01-10T20:17:25.610Z,9
2023-01-10T20:19:25.336Z,9
2023-01-10T20:20:25.612Z,9
2023-01-10T20:21:25.554Z,9
2023-01-10T20:23:25.490Z,9
2023-01-10T20:25:26.209Z,9
2023-01-10T20:27:25.875Z,9
2023-01-10T20:29:26.225Z,9
2023-01-10T20:31:25.961Z,9
2023-01-10T20:33:25.609Z,9
2023-01-10T20:35:25.239Z,9
2023-01-10T20:37:25.676Z,9.020
2023-01-10T20:39:25.510Z,9
2023-01-10T20:40:25.575Z,9
2023-01-10T20:41:25.475Z,9
2023-01-10T20:43:25.340Z,9.037
2023-01-10T20:45:25.595Z,9.062
2023-01-10T20:47:25.317Z,9.049
2023-01-10T20:49:25.146Z,9.012
2023-01-10T20:50:25.528Z,9.062
2023-01-10T20:51:25.246Z,9.024
2023-01-10T20:53:25.182Z,9.049
2023-01-10T20:55:25.366Z,9
2023-01-10T20:56:25.143Z,9
2023-01-10T20:57:25.183Z,9
2023-01-10T20:59:26.177Z,9
2023-01-10T21:00:27.374Z,9.020
2023-01-10T21:01:38.527Z,9.012
2023-01-10T21:03:25.534Z,9.051
2023-01-10T21:05:26.165Z,9.010
2023-01-10T21:07:25.477Z,9
2023-01-10T21:09:25.824Z,9.062
2023-01-10T21:11:25.483Z,9.051
2023-01-10T21:12:33.481Z,9.062
2023-01-10T21:13:25.197Z,9.062
2023-01-10T21:15:25.522Z,9.062